Time;durP1;ratioP1;P1;durP2;ratioP2;P2;SDS_P1;SDS_P2;PMS_P1;PMS_P2;Temp;Humidity;BMP_temperature;BMP_pressure;BME280_temperature;BME280_humidity;BME280_pressure;Samples;Min_cycle;Max_cycle;Signal;HPM_P1;HPM_P2
2023/11/24 00:06:06;;;;;;;2.1;1.2;;;;;;;8.41;72.55;;;;;
2023/11/24 00:16:08;;;;;;;2.9;1.5;;;;;;;8.33;72.89;;;;;
2023/11/24 00:26:07;;;;;;;2.9;1.5;;;;;;;8.47;72.38;;;;;
2023/11/24 00:36:07;;;;;;;2.9;1.5;;;;;;;8.46;72.23;;;;;
2023/11/24 00:47:06;;;;;;;1.9;1;;;;;;;8.5;72.56;;;;;
2023/11/24 00:58:06;;;;;;;1.9;1;;;;;;;7.76;74.17;;;;;
2023/11/24 01:09:09;;;;;;;1.9;1;;;;;;;7.45;74.92;;;;;
2023/11/24 01:19:06;;;;;;;3.2;1.5;;;;;;;7.76;75.41;;;;;
2023/11/24 01:30:07;;;;;;;3.2;1.5;;;;;;;8.81;71.88;;;;;
2023/11/24 01:40:06;;;;;;;3.2;1.5;;;;;;;9.11;72.01;;;;;
2023/11/24 01:50:07;;;;;;;1.6;0.8;;;;;;;8.92;75.14;;;;;
2023/11/24 02:01:07;;;;;;;1.6;0.8;;;;;;;8.61;77.75;;;;;
2023/11/24 02:12:07;;;;;;;1.6;0.8;;;;;;;8.22;82.26;;;;;
2023/11/24 02:23:06;;;;;;;3.7;0.8;;;;;;;6.64;82.93;;;;;
2023/11/24 02:33:07;;;;;;;3.7;0.8;;;;;;;5.75;84.58;;;;;
2023/11/24 02:43:06;;;;;;;2.3;0.8;;;;;;;5.52;85.8;;;;;
2023/11/24 02:54:06;;;;;;;2.3;0.8;;;;;;;5.14;86.65;;;;;
2023/11/24 03:05:06;;;;;;;2.3;0.8;;;;;;;4.99;87.42;;;;;
2023/11/24 03:15:09;;;;;;;1.3;0.6;;;;;;;4.94;86.83;;;;;
2023/11/24 03:26:06;;;;;;;1.3;0.6;;;;;;;4.73;87.63;;;;;
2023/11/24 03:36:06;;;;;;;1.3;0.6;;;;;;;4.81;86.56;;;;;
2023/11/24 03:47:06;;;;;;;1.8;0.9;;;;;;;4.99;84.41;;;;;
2023/11/24 03:57:07;;;;;;;1.8;0.9;;;;;;;5.19;82.36;;;;;
2023/11/24 04:08:07;;;;;;;1.8;0.9;;;;;;;5.34;81.06;;;;;
2023/11/24 04:19:07;;;;;;;2.5;0.8;;;;;;;5.48;79.59;;;;;
2023/11/24 04:30:07;;;;;;;2.5;0.8;;;;;;;5.51;79.74;;;;;
2023/11/24 04:41:07;;;;;;;2.5;0.8;;;;;;;5.51;80.33;;;;;
2023/11/24 04:51:07;;;;;;;1.5;0.6;;;;;;;5.38;80.84;;;;;
2023/11/24 05:01:07;;;;;;;1.5;0.6;;;;;;;5.49;79.99;;;;;
2023/11/24 05:12:07;;;;;;;1.5;1.2;;;;;;;5.46;79.29;;;;;
2023/11/24 05:23:07;;;;;;;1.5;1.2;;;;;;;5.49;78.37;;;;;
2023/11/24 05:34:07;;;;;;;1.5;1.2;;;;;;;5.56;78.04;;;;;
2023/11/24 05:45:08;;;;;;;1.4;0.9;;;;;;;5.55;76.56;;;;;
2023/11/24 05:55:07;;;;;;;1.4;0.9;;;;;;;5.44;75.02;;;;;
2023/11/24 06:06:07;;;;;;;1.4;0.9;;;;;;;5.2;72.56;;;;;
2023/11/24 06:16:07;;;;;;;1.4;0.9;;;;;;;4.81;70.95;;;;;
2023/11/24 06:27:07;;;;;;;1.4;0.9;;;;;;;4.45;74.01;;;;;
2023/11/24 06:38:07;;;;;;;1.4;0.9;;;;;;;4.01;81;;;;;
2023/11/24 06:49:08;;;;;;;4.2;1.6;;;;;;;3.56;82.89;;;;;
2023/11/24 06:59:07;;;;;;;4.2;1.6;;;;;;;3.29;85.08;;;;;
2023/11/24 07:10:07;;;;;;;4.2;1.6;;;;;;;3.23;85.85;;;;;
2023/11/24 07:21:07;;;;;;;3.6;1.3;;;;;;;3.15;86.69;;;;;
2023/11/24 07:32:10;;;;;;;3.6;1.3;;;;;;;3.24;87.49;;;;;
2023/11/24 07:43:07;;;;;;;4.2;2.2;;;;;;;3.56;86.77;;;;;
2023/11/24 07:53:13;;;;;;;4.2;2.2;;;;;;;3.63;85.77;;;;;
2023/11/24 08:04:07;;;;;;;4.2;2.2;;;;;;;3.88;83.45;;;;;
2023/11/24 08:14:07;;;;;;;7.7;3;;;;;;;4.3;81.25;;;;;
2023/11/24 08:24:09;;;;;;;7.7;3;;;;;;;4.68;80.42;;;;;
2023/11/24 08:35:07;;;;;;;7.7;3;;;;;;;4.7;78.81;;;;;
2023/11/24 08:46:07;;;;;;;5.6;2.8;;;;;;;4.76;78.78;;;;;
2023/11/24 08:57:07;;;;;;;5.6;2.8;;;;;;;5.34;75.76;;;;;
2023/11/24 09:07:08;;;;;;;5.6;2.8;;;;;;;5.66;74.45;;;;;
2023/11/24 09:18:07;;;;;;;6.1;1.8;;;;;;;5.83;73.18;;;;;
2023/11/24 09:29:07;;;;;;;6.1;1.8;;;;;;;5.8;72.41;;;;;
2023/11/24 09:39:07;;;;;;;6.1;1.8;;;;;;;5.78;71.31;;;;;
2023/11/24 09:50:09;;;;;;;7.3;2.4;;;;;;;5.6;71.68;;;;;
2023/11/24 10:00:08;;;;;;;7.3;2.4;;;;;;;5.61;71.49;;;;;
2023/11/24 10:10:07;;;;;;;7.3;2.4;;;;;;;5.76;70.84;;;;;
2023/11/24 10:21:07;;;;;;;5.1;1.4;;;;;;;5.81;71.14;;;;;
2023/11/24 10:31:07;;;;;;;5.1;1.4;;;;;;;5.87;69.61;;;;;
2023/11/24 10:42:08;;;;;;;3.8;1.4;;;;;;;6.11;68.24;;;;;
2023/11/24 10:53:07;;;;;;;3.8;1.4;;;;;;;6.37;67.29;;;;;
2023/11/24 11:03:07;;;;;;;3.8;1.4;;;;;;;6.41;65.57;;;;;
2023/11/24 11:13:07;;;;;;;5.9;2.2;;;;;;;6.6;64.65;;;;;
2023/11/24 11:24:08;;;;;;;5.9;2.2;;;;;;;7;61.72;;;;;
2023/11/24 11:35:07;;;;;;;5.9;2.2;;;;;;;7.25;59.66;;;;;
2023/11/24 11:45:09;;;;;;;3.9;1.8;;;;;;;7.28;61.67;;;;;
2023/11/24 11:55:07;;;;;;;3.9;1.8;;;;;;;6.77;62.41;;;;;
2023/11/24 12:06:07;;;;;;;3.9;1.8;;;;;;;6.42;64.52;;;;;
2023/11/24 12:16:08;;;;;;;6.1;2.2;;;;;;;6.3;66.34;;;;;
2023/11/24 12:26:07;;;;;;;6.1;2.2;;;;;;;6.56;66.67;;;;;
2023/11/24 12:37:08;;;;;;;6.1;2.2;;;;;;;6.74;64.27;;;;;
2023/11/24 12:47:07;;;;;;;5.3;1.9;;;;;;;6.8;63.39;;;;;
2023/11/24 12:58:07;;;;;;;5.3;1.9;;;;;;;6.61;62.06;;;;;
2023/11/24 13:08:07;;;;;;;5.3;1.9;;;;;;;6.49;59.93;;;;;
2023/11/24 13:18:07;;;;;;;6.3;1.7;;;;;;;5.84;60.34;;;;;
2023/11/24 13:29:07;;;;;;;6.3;1.7;;;;;;;5.59;62.58;;;;;
2023/11/24 13:39:12;;;;;;;6.3;1.7;;;;;;;5.36;64.67;;;;;
2023/11/24 13:50:07;;;;;;;3.5;1.4;;;;;;;5.06;67.37;;;;;
2023/11/24 14:01:07;;;;;;;3.5;1.4;;;;;;;5.06;68.86;;;;;
2023/11/24 14:12:09;;;;;;;5.5;1.7;;;;;;;4.87;69.67;;;;;
2023/11/24 14:23:07;;;;;;;5.5;1.7;;;;;;;4.66;69.68;;;;;
2023/11/24 14:33:10;;;;;;;5.5;1.7;;;;;;;4.42;70.21;;;;;
2023/11/24 14:44:08;;;;;;;3.2;1.7;;;;;;;4.16;73.73;;;;;
2023/11/24 14:55:11;;;;;;;3.2;1.7;;;;;;;4.02;74.36;;;;;
2023/11/24 15:05:08;;;;;;;3.2;1.7;;;;;;;3.79;75.49;;;;;
2023/11/24 15:16:12;;;;;;;4.5;2.2;;;;;;;3.55;77.91;;;;;
2023/11/24 15:26:07;;;;;;;4.5;2.2;;;;;;;3.48;78.75;;;;;
2023/11/24 15:36:09;;;;;;;4.5;2.2;;;;;;;3.53;79.84;;;;;
2023/11/24 15:47:09;;;;;;;;;;;;;;;;;;;;;
2023/11/24 15:58:11;;;;;;;;;;;;;;;;;;;;;
2023/11/24 16:08:07;;;;;;;;;;;;;;;;;;;;;
2023/11/24 16:19:08;;;;;;;;;;;;;;;;;;;;;
2023/11/24 16:29:07;;;;;;;;;;;;;;;;;;;;;
2023/11/24 16:40:08;;;;;;;4.8;2.1;;;;;;;1.68;87.54;;;;;
2023/11/24 16:50:07;;;;;;;4.8;2.1;;;;;;;1.56;87.46;;;;;
2023/11/24 17:01:08;;;;;;;6.3;2.7;;;;;;;1.3;87.79;;;;;
2023/11/24 17:12:07;;;;;;;6.3;2.7;;;;;;;1.21;88.1;;;;;
2023/11/24 17:23:07;;;;;;;6.3;2.7;;;;;;;1.27;88.44;;;;;
2023/11/24 17:34:07;;;;;;;7.9;5.3;;;;;;;1.35;89.2;;;;;
2023/11/24 17:45:15;;;;;;;7.9;5.3;;;;;;;1.26;88.56;;;;;
2023/11/24 17:55:08;;;;;;;7.9;5.3;;;;;;;1.14;88.47;;;;;
2023/11/24 18:05:07;;;;;;;6.7;3.5;;;;;;;1;88.61;;;;;
2023/11/24 18:16:10;;;;;;;6.7;3.5;;;;;;;1.03;89.14;;;;;
2023/11/24 18:26:07;;;;;;;6.7;3.5;;;;;;;1.01;88.77;;;;;
2023/11/24 18:37:07;;;;;;;7.8;4.1;;;;;;;0.76;88.24;;;;;
2023/11/24 18:47:07;;;;;;;7.8;4.1;;;;;;;0.67;88.32;;;;;
2023/11/24 18:58:07;;;;;;;7.8;4.1;;;;;;;0.85;88.52;;;;;
2023/11/24 19:09:07;;;;;;;10.5;3.8;;;;;;;1.15;88.57;;;;;
2023/11/24 19:20:07;;;;;;;10.5;3.8;;;;;;;1.36;86.75;;;;;
2023/11/24 19:31:07;;;;;;;8.6;4.1;;;;;;;1.58;86.02;;;;;
2023/11/24 19:41:07;;;;;;;8.6;4.1;;;;;;;1.73;84.94;;;;;
2023/11/24 19:51:08;;;;;;;8.6;4.1;;;;;;;1.86;82.97;;;;;
2023/11/24 20:02:08;;;;;;;8.8;4;;;;;;;1.95;84.28;;;;;
2023/11/24 20:13:09;;;;;;;8.8;4;;;;;;;2.06;84.33;;;;;
2023/11/24 20:24:07;;;;;;;8.8;4;;;;;;;2.14;83.59;;;;;
2023/11/24 20:34:07;;;;;;;8.2;4;;;;;;;2.22;84.61;;;;;
2023/11/24 20:44:08;;;;;;;8.2;4;;;;;;;2.22;84.31;;;;;
2023/11/24 20:55:08;;;;;;;8.2;4;;;;;;;2.17;82.94;;;;;
2023/11/24 21:06:07;;;;;;;13.9;6.3;;;;;;;2.1;84.55;;;;;
2023/11/24 21:16:07;;;;;;;13.9;6.3;;;;;;;1.79;83.04;;;;;
2023/11/24 21:27:07;;;;;;;13.9;6.3;;;;;;;1.67;84.42;;;;;
2023/11/24 21:37:08;;;;;;;10.9;4.2;;;;;;;1.66;82.82;;;;;
2023/11/24 21:48:08;;;;;;;10.9;4.2;;;;;;;1.77;84.64;;;;;
2023/11/24 21:58:07;;;;;;;10.9;4.2;;;;;;;1.75;82.88;;;;;
2023/11/24 22:09:07;;;;;;;4.8;3.1;;;;;;;1.79;80.8;;;;;
2023/11/24 22:19:07;;;;;;;4.8;3.1;;;;;;;1.9;81.68;;;;;
2023/11/24 22:30:07;;;;;;;7.1;3.2;;;;;;;2.01;81.92;;;;;
2023/11/24 22:40:09;;;;;;;7.1;3.2;;;;;;;2.01;79.3;;;;;
2023/11/24 22:50:09;;;;;;;7.1;3.2;;;;;;;1.97;79.87;;;;;
2023/11/24 23:01:07;;;;;;;4.6;2.9;;;;;;;1.78;84.72;;;;;
2023/11/24 23:11:12;;;;;;;4.6;2.9;;;;;;;1.7;85.99;;;;;
2023/11/24 23:22:08;;;;;;;4.6;2.9;;;;;;;1.62;85.65;;;;;
2023/11/24 23:33:07;;;;;;;4.7;2.9;;;;;;;1.67;85.01;;;;;
2023/11/24 23:43:07;;;;;;;4.7;2.9;;;;;;;1.7;84.4;;;;;
2023/11/24 23:53:07;;;;;;;4.7;2.9;;;;;;;1.74;83.22;;;;;
